createdAt,value
2022-08-21T00:00:32.655Z,50.95
2022-08-21T00:03:04.273Z,51.09
2022-08-21T00:05:32.616Z,51.68
2022-08-21T00:08:02.680Z,51.94
2022-08-21T00:10:29.209Z,53.53
2022-08-21T00:12:56.398Z,52.95
2022-08-21T00:15:32.050Z,53.06
2022-08-21T00:17:59.184Z,53.03
2022-08-21T00:20:25.818Z,53.24
2022-08-21T00:22:52.588Z,53.12
2022-08-21T00:25:20.980Z,53.28
2022-08-21T00:27:52.762Z,53.56
2022-08-21T00:30:23.370Z,53.45
2022-08-21T00:32:52.019Z,53.56
2022-08-21T00:35:20.972Z,54.37
2022-08-21T00:37:47.729Z,54.97
2022-08-21T00:40:21.936Z,54.91
2022-08-21T00:42:53.431Z,54.85
2022-08-21T00:45:22.084Z,55.00
2022-08-21T00:47:49.079Z,54.70
2022-08-21T00:50:21.565Z,55.16
2022-08-21T00:52:48.939Z,54.99
2022-08-21T00:55:17.598Z,55.52
2022-08-21T00:57:50.520Z,55.68
2022-08-21T01:00:22.429Z,55.77
2022-08-21T01:02:49.042Z,55.93
2022-08-21T01:05:17.384Z,55.95
2022-08-21T01:07:45.778Z,56.16
2022-08-21T01:10:24.128Z,56.46
2022-08-21T01:12:53.706Z,56.32
2022-08-21T01:15:22.658Z,56.59
2022-08-21T01:17:50.260Z,56.91
2022-08-21T01:20:17.491Z,57.58
2022-08-21T01:22:44.149Z,57.55
2022-08-21T01:25:14.540Z,57.94
2022-08-21T01:27:41.075Z,58.34
2022-08-21T01:30:24.232Z,57.88
2022-08-21T01:32:52.169Z,58.29
2022-08-21T01:35:19.694Z,58.20
2022-08-21T01:37:46.958Z,58.39
2022-08-21T01:40:16.579Z,58.66
2022-08-21T01:42:44.591Z,58.50
2022-08-21T01:45:12.081Z,58.69
2022-08-21T01:47:38.837Z,58.62
2022-08-21T01:50:08.816Z,58.52
2022-08-21T01:52:35.400Z,59.03
2022-08-21T01:55:02.178Z,59.13
2022-08-21T01:57:28.987Z,59.06
2022-08-21T01:59:55.577Z,59.26
2022-08-21T02:02:24.923Z,58.76
2022-08-21T02:04:54.550Z,58.83
2022-08-21T02:07:22.160Z,59.22
2022-08-21T02:09:48.653Z,60.76
2022-08-21T02:12:15.140Z,63.30
2022-08-21T02:14:41.641Z,64.70
2022-08-21T02:17:10.978Z,63.22
2022-08-21T02:19:40.698Z,61.95
2022-08-21T02:22:10.372Z,60.73
2022-08-21T02:24:38.534Z,60.49
2022-08-21T02:27:26.767Z,60.19
2022-08-21T02:29:58.787Z,60.48
2022-08-21T02:32:26.784Z,59.97
2022-08-21T02:34:53.685Z,60.38
2022-08-21T02:37:20.177Z,59.61
2022-08-21T02:39:46.787Z,60.08
2022-08-21T02:42:13.362Z,59.66
2022-08-21T02:44:39.838Z,60.13
2022-08-21T02:47:06.396Z,60.35
2022-08-21T02:49:32.889Z,60.16
2022-08-21T02:51:59.416Z,60.32
2022-08-21T02:54:26.167Z,60.45
2022-08-21T02:56:52.794Z,61.40
2022-08-21T02:59:19.274Z,63.02
2022-08-21T03:01:45.766Z,62.21
2022-08-21T03:04:12.295Z,61.04
2022-08-21T03:06:38.786Z,60.74
2022-08-21T03:09:05.447Z,60.84
2022-08-21T03:11:31.990Z,60.86
2022-08-21T03:13:58.509Z,60.77
2022-08-21T03:16:25.049Z,61.18
2022-08-21T03:18:51.497Z,60.98
2022-08-21T03:21:19.851Z,61.02
2022-08-21T03:23:47.515Z,61.31
2022-08-21T03:26:14.730Z,61.34
2022-08-21T03:28:42.747Z,61.42
2022-08-21T03:31:09.631Z,61.28
2022-08-21T03:33:36.322Z,61.47
2022-08-21T03:36:06.772Z,61.35
2022-08-21T03:38:35.244Z,61.41
2022-08-21T03:41:02.457Z,60.89
2022-08-21T03:43:31.267Z,60.85
2022-08-21T03:46:01.103Z,61.18
2022-08-21T03:48:27.652Z,61.15
2022-08-21T03:50:54.202Z,60.97
2022-08-21T03:53:20.897Z,61.42
2022-08-21T03:55:50.326Z,61.42
2022-08-21T03:58:19.714Z,61.07
2022-08-21T04:00:47.837Z,61.41
2022-08-21T04:03:14.346Z,61.32
2022-08-21T04:05:41.833Z,61.51
2022-08-21T04:08:08.763Z,61.38
2022-08-21T04:10:38.000Z,61.35
2022-08-21T04:13:05.952Z,61.08
2022-08-21T04:15:32.566Z,61.06
2022-08-21T04:17:59.935Z,61.06
2022-08-21T04:20:26.698Z,61.22
2022-08-21T04:22:53.778Z,61.64
2022-08-21T04:25:22.473Z,61.42
2022-08-21T04:27:49.485Z,61.26
2022-08-21T04:30:17.555Z,61.24
2022-08-21T04:32:49.962Z,61.64
2022-08-21T04:35:18.380Z,61.42
2022-08-21T04:37:45.012Z,61.57
2022-08-21T04:40:14.238Z,61.56
2022-08-21T04:42:53.195Z,61.67
2022-08-21T04:45:26.596Z,61.64
2022-08-21T04:47:54.966Z,61.72
2022-08-21T04:50:24.815Z,61.50
2022-08-21T04:52:51.503Z,61.58
2022-08-21T04:55:19.756Z,61.73
2022-08-21T04:57:48.671Z,61.67
2022-08-21T05:00:19.465Z,61.31
2022-08-21T05:02:48.600Z,61.41
2022-08-21T05:05:16.629Z,61.13
2022-08-21T05:07:45.499Z,60.99
2022-08-21T05:10:13.858Z,60.64
2022-08-21T05:12:42.875Z,60.88
2022-08-21T05:15:12.910Z,60.98
2022-08-21T05:17:43.130Z,60.62
2022-08-21T05:20:11.385Z,60.96
2022-08-21T05:22:37.946Z,61.00
2022-08-21T05:25:10.331Z,61.49
2022-08-21T05:27:39.218Z,60.89
2022-08-21T05:30:09.776Z,60.52
2022-08-21T05:32:37.405Z,60.37
2022-08-21T05:35:06.040Z,60.25
2022-08-21T05:37:32.754Z,60.39
2022-08-21T05:40:20.073Z,60.34
2022-08-21T05:42:53.998Z,60.42
2022-08-21T05:45:43.356Z,59.52
2022-08-21T05:48:20.148Z,59.13
2022-08-21T05:50:50.980Z,60.04
2022-08-21T05:53:20.558Z,59.47
2022-08-21T05:55:49.050Z,59.04
2022-08-21T05:58:17.968Z,59.41
2022-08-21T06:00:48.218Z,59.29
2022-08-21T06:03:20.474Z,59.97
2022-08-21T06:05:47.657Z,59.23
2022-08-21T06:08:18.205Z,59.01
2022-08-21T06:10:45.540Z,58.74
2022-08-21T06:13:12.879Z,58.71
2022-08-21T06:15:39.605Z,58.72
2022-08-21T06:18:06.466Z,58.71
2022-08-21T06:20:33.424Z,59.73
2022-08-21T06:23:00.026Z,59.07
2022-08-21T06:25:26.907Z,58.53
2022-08-21T06:27:53.460Z,58.21
2022-08-21T06:30:20.090Z,60.16
2022-08-21T06:32:46.534Z,61.94
2022-08-21T06:35:12.999Z,60.23
2022-08-21T06:37:39.463Z,61.12
2022-08-21T06:40:12.564Z,60.33
2022-08-21T06:42:39.823Z,58.57
2022-08-21T06:45:08.310Z,58.63
2022-08-21T06:47:34.884Z,60.06
2022-08-21T06:50:01.548Z,58.57
2022-08-21T06:52:28.075Z,58.45
2022-08-21T06:54:54.521Z,59.05
2022-08-21T06:57:20.987Z,57.94
2022-08-21T06:59:47.448Z,58.15
2022-08-21T07:02:14.106Z,57.67
2022-08-21T07:04:40.610Z,57.44
2022-08-21T07:07:07.071Z,58.65
2022-08-21T07:09:33.978Z,56.59
2022-08-21T07:12:01.015Z,56.06
2022-08-21T07:14:27.493Z,55.98
2022-08-21T07:16:53.983Z,55.32
2022-08-21T07:19:20.502Z,55.78
2022-08-21T07:21:47.575Z,54.42
2022-08-21T07:24:14.173Z,53.70
2022-08-21T07:26:41.109Z,54.16
2022-08-21T07:29:07.563Z,53.06
2022-08-21T07:31:34.022Z,52.59
2022-08-21T07:34:00.511Z,51.86
2022-08-21T07:36:26.980Z,51.03
2022-08-21T07:38:53.816Z,50.29
2022-08-21T07:41:23.510Z,49.35
2022-08-21T07:43:52.673Z,48.23
2022-08-21T07:46:20.418Z,48.14
2022-08-21T07:48:46.928Z,49.53
2022-08-21T07:51:15.916Z,46.16
2022-08-21T07:53:42.683Z,45.83
2022-08-21T07:56:09.495Z,41.90
2022-08-21T07:58:36.148Z,40.63
2022-08-21T08:01:02.702Z,39.59
2022-08-21T08:03:29.436Z,38.07
2022-08-21T08:05:57.521Z,38.12
2022-08-21T08:08:24.610Z,38.86
2022-08-21T08:10:51.443Z,41.71
2022-08-21T08:13:18.279Z,36.93
2022-08-21T08:15:44.820Z,36.36
2022-08-21T08:18:11.370Z,36.51
2022-08-21T08:20:37.965Z,39.61
2022-08-21T08:23:04.464Z,38.83
2022-08-21T08:25:36.623Z,39.28
2022-08-21T08:28:06.834Z,40.41
2022-08-21T08:30:45.090Z,39.47
2022-08-21T08:33:11.565Z,40.91
2022-08-21T08:35:39.144Z,42.25
2022-08-21T08:38:06.422Z,42.21
2022-08-21T08:40:45.797Z,42.83
2022-08-21T08:43:15.516Z,40.35
2022-08-21T08:45:47.641Z,44.07
2022-08-21T08:48:18.182Z,44.96
2022-08-21T08:50:50.160Z,43.67
2022-08-21T08:53:25.242Z,43.63
2022-08-21T08:55:53.446Z,42.47
2022-08-21T08:58:25.515Z,42.72
2022-08-21T09:00:54.833Z,42.92
2022-08-21T09:03:23.907Z,41.48
2022-08-21T09:06:19.002Z,41.51
2022-08-21T09:08:59.705Z,42.91
2022-08-21T09:11:32.315Z,42.97
2022-08-21T09:14:04.762Z,42.16
2022-08-21T09:17:13.386Z,42.86
2022-08-21T09:19:58.316Z,43.35
2022-08-21T09:22:43.650Z,43.87
2022-08-21T09:25:19.310Z,43.18
2022-08-21T09:27:45.823Z,41.65
2022-08-21T09:30:13.391Z,42.53
2022-08-21T09:32:40.711Z,41.89
2022-08-21T09:35:14.240Z,42.42
2022-08-21T09:37:46.611Z,41.18
2022-08-21T09:40:28.672Z,42.02
2022-08-21T09:43:20.249Z,42.37
2022-08-21T09:45:48.695Z,40.19
2022-08-21T09:48:15.080Z,40.66
2022-08-21T09:50:43.690Z,40.87
2022-08-21T09:53:26.912Z,40.62
2022-08-21T09:56:19.087Z,40.00
2022-08-21T09:58:51.655Z,39.66
2022-08-21T10:01:23.398Z,39.26
2022-08-21T10:04:02.495Z,38.64
2022-08-21T10:06:29.580Z,39.54
2022-08-21T10:09:21.098Z,39.28
2022-08-21T10:12:11.851Z,37.96
2022-08-21T10:14:46.399Z,37.37
2022-08-21T10:17:23.423Z,37.21
2022-08-21T10:20:29.404Z,38.62
2022-08-21T10:23:14.133Z,37.75
2022-08-21T10:26:14.046Z,37.83
2022-08-21T10:28:48.569Z,37.35
2022-08-21T10:31:45.962Z,36.81
2022-08-21T10:34:26.238Z,37.11
2022-08-21T10:37:13.846Z,37.16
2022-08-21T10:40:00.810Z,36.05
2022-08-21T10:43:07.815Z,36.76
2022-08-21T10:45:52.952Z,35.25
2022-08-21T10:48:47.597Z,37.52
2022-08-21T10:51:29.240Z,34.47
2022-08-21T10:54:23.199Z,35.15
2022-08-21T10:56:56.852Z,35.71
2022-08-21T10:59:35.436Z,34.70
2022-08-21T11:02:21.538Z,36.09
2022-08-21T11:04:58.305Z,34.66
2022-08-21T11:07:49.946Z,34.05
2022-08-21T11:10:25.695Z,33.85
2022-08-21T11:13:08.069Z,34.49
2022-08-21T11:15:59.992Z,34.19
2022-08-21T11:18:35.796Z,34.54
2022-08-21T11:21:04.829Z,35.13
2022-08-21T11:23:55.417Z,32.95
2022-08-21T11:26:37.826Z,33.36
2022-08-21T11:29:28.806Z,34.25
2022-08-21T11:32:32.536Z,34.75
2022-08-21T11:35:17.868Z,35.04
2022-08-21T11:37:52.274Z,33.94
2022-08-21T11:40:27.686Z,34.31
2022-08-21T11:43:00.396Z,34.05
2022-08-21T11:45:54.503Z,34.28
2022-08-21T11:48:55.025Z,34.11
2022-08-21T11:51:34.483Z,33.11
2022-08-21T11:54:20.096Z,35.36
2022-08-21T11:56:56.722Z,33.62
2022-08-21T11:59:46.749Z,34.79
2022-08-21T12:02:22.064Z,33.87
2022-08-21T12:04:54.374Z,34.34
2022-08-21T12:07:34.826Z,33.09
2022-08-21T12:10:05.137Z,32.84
2022-08-21T12:12:38.094Z,33.31
2022-08-21T12:15:16.907Z,32.51
2022-08-21T12:17:56.266Z,31.98
2022-08-21T12:20:22.682Z,32.44
2022-08-21T12:23:12.675Z,31.43
2022-08-21T12:26:01.643Z,31.52
2022-08-21T12:28:30.055Z,30.78
2022-08-21T12:30:58.249Z,32.46
2022-08-21T12:33:24.738Z,32.84
2022-08-21T12:35:55.880Z,30.99
2022-08-21T12:38:28.657Z,30.35
2022-08-21T12:41:11.313Z,30.33
2022-08-21T12:43:48.453Z,30.44
2022-08-21T12:46:27.457Z,29.85
2022-08-21T12:49:02.568Z,29.38
2022-08-21T12:51:57.462Z,30.35
2022-08-21T12:54:27.847Z,31.08
2022-08-21T12:57:06.981Z,32.04
2022-08-21T12:59:38.638Z,30.24
2022-08-21T13:02:17.799Z,29.72
2022-08-21T13:04:45.323Z,29.54
2022-08-21T13:07:19.020Z,29.00
2022-08-21T13:09:51.823Z,29.40
2022-08-21T13:12:21.300Z,30.00
2022-08-21T13:14:50.491Z,28.12
2022-08-21T13:17:25.502Z,29.43
2022-08-21T13:20:02.149Z,29.93
2022-08-21T13:22:34.267Z,29.43
2022-08-21T13:25:07.049Z,28.56
2022-08-21T13:27:35.020Z,29.45
2022-08-21T13:30:23.388Z,28.70
2022-08-21T13:32:58.410Z,30.50
2022-08-21T13:35:29.331Z,29.88
2022-08-21T13:37:57.021Z,28.34
2022-08-21T13:40:31.508Z,29.57
2022-08-21T13:42:58.926Z,26.70
2022-08-21T13:45:33.310Z,27.82
2022-08-21T13:48:06.157Z,29.42
2022-08-21T13:50:37.389Z,28.83
2022-08-21T13:53:07.853Z,28.94
2022-08-21T13:55:43.794Z,29.75
2022-08-21T13:58:12.483Z,30.50
2022-08-21T14:00:51.461Z,29.37
2022-08-21T14:03:33.589Z,28.39
2022-08-21T14:06:00.654Z,28.97
2022-08-21T14:08:36.929Z,29.10
2022-08-21T14:11:05.833Z,30.21
2022-08-21T14:13:41.495Z,28.41
2022-08-21T14:16:18.983Z,28.56
2022-08-21T14:18:52.897Z,29.11
2022-08-21T14:21:33.367Z,28.13
2022-08-21T14:24:03.576Z,28.77
2022-08-21T14:26:30.140Z,28.03
2022-08-21T14:29:00.895Z,27.85
2022-08-21T14:31:33.646Z,28.29
2022-08-21T14:34:00.358Z,27.07
2022-08-21T14:36:26.848Z,30.26
2022-08-21T14:38:53.364Z,29.22
2022-08-21T14:41:24.857Z,28.55
2022-08-21T14:43:55.978Z,27.91
2022-08-21T14:46:55.654Z,28.08
2022-08-21T14:49:27.033Z,28.71
2022-08-21T14:51:58.495Z,29.29
2022-08-21T14:54:32.422Z,29.54
2022-08-21T14:57:06.402Z,28.40
2022-08-21T14:59:34.179Z,28.77
2022-08-21T15:02:01.075Z,29.14
2022-08-21T15:04:27.645Z,28.29
2022-08-21T15:06:54.146Z,28.54
2022-08-21T15:09:20.707Z,28.49
2022-08-21T15:11:47.289Z,28.39
2022-08-21T15:14:22.494Z,28.74
2022-08-21T15:16:50.126Z,28.09
2022-08-21T15:19:17.161Z,28.66
2022-08-21T15:21:43.678Z,28.53
2022-08-21T15:24:10.254Z,28.13
2022-08-21T15:26:37.186Z,28.50
2022-08-21T15:29:06.755Z,28.46
2022-08-21T15:31:34.695Z,27.23
2022-08-21T15:34:01.183Z,29.57
2022-08-21T15:36:27.725Z,28.51
2022-08-21T15:38:54.264Z,28.67
2022-08-21T15:41:20.846Z,28.15
2022-08-21T15:43:50.318Z,28.27
2022-08-21T15:46:19.437Z,28.35
2022-08-21T15:48:47.135Z,28.31
2022-08-21T15:51:15.218Z,27.99
2022-08-21T15:53:42.910Z,28.75
2022-08-21T15:56:23.720Z,28.34
2022-08-21T15:58:54.311Z,28.75
2022-08-21T16:01:22.502Z,28.58
2022-08-21T16:03:50.962Z,28.04
2022-08-21T16:06:17.607Z,28.13
2022-08-21T16:09:04.436Z,28.51
2022-08-21T16:11:31.087Z,28.57
2022-08-21T16:13:57.658Z,28.84
2022-08-21T16:16:25.268Z,28.32
2022-08-21T16:18:52.653Z,29.50
2022-08-21T16:21:19.635Z,28.44
2022-08-21T16:23:46.180Z,28.26
2022-08-21T16:26:18.361Z,28.98
2022-08-21T16:28:46.399Z,29.32
2022-08-21T16:31:15.320Z,28.63
2022-08-21T16:33:44.868Z,28.27
2022-08-21T16:36:12.742Z,29.31
2022-08-21T16:38:40.323Z,28.56
2022-08-21T16:41:09.739Z,29.05
2022-08-21T16:43:36.565Z,29.66
2022-08-21T16:46:03.077Z,29.55
2022-08-21T16:48:29.818Z,28.59
2022-08-21T16:50:57.907Z,29.23
2022-08-21T16:53:25.926Z,29.53
2022-08-21T16:55:53.449Z,29.20
2022-08-21T16:58:26.049Z,29.66
2022-08-21T17:00:53.186Z,29.41
2022-08-21T17:03:25.906Z,29.70
2022-08-21T17:05:52.397Z,29.51
2022-08-21T17:08:18.880Z,29.21
2022-08-21T17:10:49.084Z,29.42
2022-08-21T17:13:16.155Z,29.89
2022-08-21T17:15:42.906Z,29.80
2022-08-21T17:18:19.305Z,29.59
2022-08-21T17:20:47.606Z,29.48
2022-08-21T17:23:15.100Z,29.90
2022-08-21T17:25:45.210Z,29.88
2022-08-21T17:28:23.411Z,29.64
2022-08-21T17:30:50.740Z,29.90
2022-08-21T17:33:19.297Z,29.92
2022-08-21T17:35:46.424Z,29.99
2022-08-21T17:38:14.955Z,30.10
2022-08-21T17:40:42.220Z,30.51
2022-08-21T17:43:11.653Z,30.55
2022-08-21T17:45:40.536Z,30.24
2022-08-21T17:48:07.102Z,30.74
2022-08-21T17:50:34.161Z,30.54
2022-08-21T17:53:00.818Z,30.80
2022-08-21T17:55:28.567Z,30.96
2022-08-21T17:57:55.939Z,30.47
2022-08-21T18:00:25.509Z,30.42
2022-08-21T18:03:04.613Z,30.23
2022-08-21T18:05:31.447Z,30.38
2022-08-21T18:07:57.904Z,30.60
2022-08-21T18:10:25.138Z,31.11
2022-08-21T18:12:52.146Z,30.73
2022-08-21T18:15:20.221Z,31.80
2022-08-21T18:17:49.812Z,31.48
2022-08-21T18:20:20.121Z,32.52
2022-08-21T18:22:47.041Z,33.96
2022-08-21T18:25:13.847Z,33.89
2022-08-21T18:27:42.613Z,33.50
2022-08-21T18:30:10.642Z,33.86
2022-08-21T18:32:37.332Z,33.07
2022-08-21T18:35:05.550Z,33.19
2022-08-21T18:37:32.131Z,32.54
2022-08-21T18:39:59.303Z,33.56
2022-08-21T18:42:28.664Z,33.39
2022-08-21T18:45:00.850Z,34.17
2022-08-21T18:47:37.265Z,34.70
2022-08-21T18:50:10.745Z,35.48
2022-08-21T18:52:38.519Z,35.89
2022-08-21T18:55:13.533Z,35.84
2022-08-21T18:57:42.155Z,36.58
2022-08-21T19:00:20.688Z,35.93
2022-08-21T19:02:47.391Z,36.06
2022-08-21T19:05:15.924Z,37.00
2022-08-21T19:07:44.032Z,37.72
2022-08-21T19:10:29.350Z,37.65
2022-08-21T19:13:00.258Z,37.72
2022-08-21T19:15:27.523Z,37.77
2022-08-21T19:17:55.784Z,37.97
2022-08-21T19:20:34.342Z,37.56
2022-08-21T19:23:02.375Z,37.36
2022-08-21T19:28:25.255Z,36.25
2022-08-21T19:30:58.755Z,36.66
2022-08-21T19:33:35.898Z,35.97
2022-08-21T19:36:03.947Z,36.39
2022-08-21T19:38:30.502Z,36.47
2022-08-21T19:40:59.039Z,37.04
2022-08-21T19:43:26.188Z,36.24
2022-08-21T19:45:56.979Z,36.52
2022-08-21T19:48:24.918Z,36.79
2022-08-21T19:50:52.592Z,36.66
2022-08-21T19:53:19.799Z,37.07
2022-08-21T19:55:48.234Z,37.00
2022-08-21T19:58:23.892Z,37.09
2022-08-21T20:00:50.421Z,37.96
2022-08-21T20:03:17.742Z,38.10
2022-08-21T20:05:47.768Z,37.11
2022-08-21T20:08:20.612Z,37.01
2022-08-21T20:10:49.774Z,37.73
2022-08-21T20:13:17.858Z,37.64
2022-08-21T20:15:45.506Z,38.06
2022-08-21T20:18:12.151Z,38.55
2022-08-21T20:20:38.693Z,38.02
2022-08-21T20:25:51.739Z,39.15
2022-08-21T20:28:18.403Z,39.37
2022-08-21T20:30:48.401Z,40.30
2022-08-21T20:33:15.752Z,39.14
2022-08-21T20:35:45.234Z,39.07
2022-08-21T20:38:11.771Z,38.88
2022-08-21T20:40:40.491Z,39.64
2022-08-21T20:43:08.332Z,39.18
2022-08-21T20:45:40.456Z,39.21
2022-08-21T20:48:31.837Z,39.17
2022-08-21T20:51:31.682Z,39.30
2022-08-21T20:54:16.974Z,39.71
2022-08-21T20:57:13.886Z,39.61
2022-08-21T20:59:50.318Z,40.34
2022-08-21T21:02:20.701Z,40.62
2022-08-21T21:04:52.406Z,41.00
2022-08-21T21:07:27.380Z,41.28
2022-08-21T21:09:56.772Z,41.68
2022-08-21T21:12:31.445Z,42.11
2022-08-21T21:15:05.571Z,42.01
2022-08-21T21:17:43.162Z,42.62
2022-08-21T21:20:54.025Z,42.47
2022-08-21T21:23:36.523Z,43.31
2022-08-21T21:29:23.625Z,44.16
2022-08-21T21:31:53.767Z,44.39
2022-08-21T21:34:22.388Z,45.02
2022-08-21T21:36:56.636Z,44.90
2022-08-21T21:39:36.107Z,44.99
2022-08-21T21:42:18.084Z,44.96
2022-08-21T21:45:21.560Z,45.40
2022-08-21T21:51:16.349Z,46.46
2022-08-21T21:54:04.036Z,46.43
2022-08-21T21:56:52.527Z,48.60
2022-08-21T21:59:51.226Z,49.62
2022-08-21T22:02:42.194Z,49.93
2022-08-21T22:05:43.383Z,49.23
2022-08-21T22:08:12.778Z,49.61
2022-08-21T22:11:00.155Z,50.19
2022-08-21T22:13:53.323Z,49.89
2022-08-21T22:16:22.257Z,49.95
2022-08-21T22:18:56.303Z,49.41
2022-08-21T22:21:36.041Z,49.61
2022-08-21T22:24:12.453Z,49.53
2022-08-21T22:26:46.055Z,49.32
2022-08-21T22:29:18.896Z,50.06
2022-08-21T22:32:02.379Z,49.93
2022-08-21T22:34:31.974Z,49.49
2022-08-21T22:37:02.754Z,49.58
2022-08-21T22:39:38.577Z,49.04
2022-08-21T22:42:21.458Z,49.31
2022-08-21T22:44:58.620Z,49.37
2022-08-21T22:47:39.203Z,49.46
2022-08-21T22:50:18.527Z,49.49
2022-08-21T22:53:06.839Z,49.56
2022-08-21T22:55:39.163Z,50.26
2022-08-21T22:58:21.018Z,50.63
2022-08-21T23:01:02.152Z,50.52
2022-08-21T23:03:50.739Z,50.71
2022-08-21T23:06:32.577Z,50.76
2022-08-21T23:09:00.904Z,51.40
2022-08-21T23:11:40.110Z,53.13
2022-08-21T23:14:07.257Z,53.13
2022-08-21T23:16:43.063Z,56.37
2022-08-21T23:19:38.248Z,53.58
2022-08-21T23:22:23.638Z,52.70
2022-08-21T23:25:50.146Z,52.50
2022-08-21T23:28:38.746Z,52.31
2022-08-21T23:31:14.319Z,52.16
2022-08-21T23:34:15.879Z,52.45
2022-08-21T23:37:16.999Z,52.57
2022-08-21T23:39:51.739Z,52.87
2022-08-21T23:42:28.540Z,52.82
2022-08-21T23:45:17.313Z,53.03
2022-08-21T23:48:02.468Z,53.09
2022-08-21T23:50:55.451Z,52.79
2022-08-21T23:53:44.250Z,53.06
2022-08-21T23:56:39.953Z,53.27
2022-08-21T23:59:28.270Z,53.59
